createdAt,value
2022-08-04T00:01:52.421Z,2.15
2022-08-04T00:04:27.629Z,3.35
2022-08-04T00:07:05.710Z,2.63
2022-08-04T00:09:40.271Z,2.95
2022-08-04T00:12:09.327Z,2.60
2022-08-04T00:14:41.424Z,2.42
2022-08-04T00:17:10.179Z,3.00
2022-08-04T00:19:43.025Z,3.00
2022-08-04T00:22:13.112Z,2.58
2022-08-04T00:24:42.157Z,3.00
2022-08-04T00:27:11.102Z,2.83
2022-08-04T00:29:40.744Z,3.80
2022-08-04T00:32:10.122Z,3.30
2022-08-04T00:34:40.953Z,3.47
2022-08-04T00:37:09.971Z,3.92
2022-08-04T00:39:38.832Z,3.95
2022-08-04T00:42:49.339Z,3.80
2022-08-04T00:46:11.711Z,3.38
2022-08-04T00:49:01.371Z,3.38
2022-08-04T00:51:39.383Z,3.38
2022-08-04T00:54:13.932Z,3.40
2022-08-04T00:57:06.161Z,3.72
2022-08-04T00:59:46.327Z,3.55
2022-08-04T01:02:25.105Z,3.55
2022-08-04T01:05:03.918Z,4.15
2022-08-04T01:07:49.857Z,3.92
2022-08-04T01:10:25.330Z,3.88
2022-08-04T01:13:10.150Z,3.58
2022-08-04T01:15:56.417Z,3.58
2022-08-04T01:18:35.465Z,3.60
2022-08-04T01:21:16.151Z,3.92
2022-08-04T01:24:07.124Z,3.85
2022-08-04T01:26:57.747Z,3.83
2022-08-04T01:29:46.841Z,4.00
2022-08-04T01:32:25.569Z,3.40
2022-08-04T01:35:01.093Z,3.30
2022-08-04T01:37:38.642Z,3.10
2022-08-04T01:40:09.437Z,3.47
2022-08-04T01:42:38.517Z,4.07
2022-08-04T01:45:10.670Z,3.38
2022-08-04T01:47:43.208Z,3.60
2022-08-04T01:50:13.875Z,3.45
2022-08-04T01:52:47.583Z,4.53
2022-08-04T01:55:19.315Z,3.90
2022-08-04T01:57:49.445Z,3.90
2022-08-04T02:00:20.546Z,4.05
2022-08-04T02:02:49.373Z,3.38
2022-08-04T02:05:19.545Z,3.80
2022-08-04T02:08:06.189Z,3.78
2022-08-04T02:10:55.785Z,3.70
2022-08-04T02:13:28.901Z,3.80
2022-08-04T02:16:05.054Z,4.30
2022-08-04T02:18:35.475Z,4.00
2022-08-04T02:21:04.694Z,4.43
2022-08-04T02:23:37.089Z,4.25
2022-08-04T02:26:07.265Z,3.97
2022-08-04T02:28:48.337Z,4.82
2022-08-04T02:31:23.889Z,3.92
2022-08-04T02:34:02.805Z,4.18
2022-08-04T02:36:36.662Z,3.63
2022-08-04T02:39:07.089Z,3.83
2022-08-04T02:41:36.270Z,4.03
2022-08-04T02:44:06.472Z,3.33
2022-08-04T02:46:37.990Z,3.63
2022-08-04T02:49:07.641Z,3.97
2022-08-04T02:51:37.422Z,3.42
2022-08-04T02:54:07.636Z,4.05
2022-08-04T02:56:37.470Z,3.80
2022-08-04T02:59:08.461Z,4.43
2022-08-04T03:01:57.267Z,3.80
2022-08-04T03:04:45.956Z,3.58
2022-08-04T03:07:37.974Z,3.33
2022-08-04T03:10:39.535Z,3.95
2022-08-04T03:13:49.555Z,3.58
2022-08-04T03:16:50.053Z,3.58
2022-08-04T03:20:05.784Z,3.80
2022-08-04T03:23:12.022Z,3.38
2022-08-04T03:26:21.406Z,3.60
2022-08-04T03:29:11.212Z,3.00
2022-08-04T03:32:07.652Z,3.70
2022-08-04T03:34:48.200Z,3.35
2022-08-04T03:37:31.168Z,3.30
2022-08-04T03:40:31.324Z,3.20
2022-08-04T03:43:57.888Z,3.60
2022-08-04T03:46:57.753Z,2.85
2022-08-04T03:49:57.886Z,3.33
2022-08-04T03:53:00.966Z,2.90
2022-08-04T03:56:14.092Z,3.08
2022-08-04T03:58:54.499Z,2.80
2022-08-04T04:02:02.525Z,3.05
2022-08-04T04:04:44.055Z,3.40
2022-08-04T04:08:10.054Z,3.05
2022-08-04T04:11:11.695Z,3.38
2022-08-04T04:14:00.585Z,3.08
2022-08-04T04:16:39.845Z,2.75
2022-08-04T04:19:38.912Z,3.17
2022-08-04T04:22:33.144Z,3.13
2022-08-04T04:25:11.001Z,2.80
2022-08-04T04:27:52.902Z,3.50
2022-08-04T04:30:26.595Z,3.40
2022-08-04T04:33:07.752Z,3.10
2022-08-04T04:35:42.856Z,3.35
2022-08-04T04:38:41.562Z,2.83
2022-08-04T04:41:34.920Z,3.20
2022-08-04T04:44:30.204Z,3.30
2022-08-04T04:47:06.656Z,3.00
2022-08-04T04:49:38.714Z,3.00
2022-08-04T04:52:11.146Z,3.20
2022-08-04T04:54:42.412Z,3.15
2022-08-04T04:57:14.683Z,4.05
2022-08-04T04:59:50.522Z,4.80
2022-08-04T05:02:38.121Z,4.90
2022-08-04T05:05:42.025Z,4.82
2022-08-04T05:08:45.185Z,4.43
2022-08-04T05:11:37.159Z,3.80
2022-08-04T05:14:37.970Z,3.50
2022-08-04T05:17:04.483Z,3.05
2022-08-04T05:19:46.345Z,2.70
2022-08-04T05:22:19.716Z,3.20
2022-08-04T05:24:51.722Z,3.22
2022-08-04T05:27:23.862Z,2.95
2022-08-04T05:29:55.970Z,2.53
2022-08-04T05:32:30.610Z,2.83
2022-08-04T05:35:03.875Z,2.50
2022-08-04T05:37:33.205Z,2.33
2022-08-04T05:40:05.011Z,2.00
2022-08-04T05:42:34.606Z,1.98
2022-08-04T05:45:03.502Z,1.65
2022-08-04T05:47:34.464Z,1.65
2022-08-04T05:50:04.745Z,1.30
2022-08-04T05:52:35.429Z,1.50
2022-08-04T05:55:04.757Z,1.10
2022-08-04T05:57:33.712Z,1.52
2022-08-04T06:00:19.828Z,1.50
2022-08-04T06:02:55.866Z,1.20
2022-08-04T06:05:24.966Z,1.23
2022-08-04T06:08:12.692Z,1.20
2022-08-04T06:10:42.699Z,0.98
2022-08-04T06:13:48.996Z,1.20
2022-08-04T06:16:04.555Z,1.00
2022-08-04T06:20:02.307Z,1.23
2022-08-04T06:21:24.827Z,1.33
2022-08-04T06:24:02.411Z,0.90
2022-08-04T06:26:35.009Z,1.38
2022-08-04T06:29:04.900Z,0.98
2022-08-04T06:32:28.280Z,1.25
2022-08-04T06:34:36.387Z,1.15
2022-08-04T06:37:04.945Z,0.75
2022-08-04T06:39:34.213Z,1.27
2022-08-04T06:42:21.896Z,1.15
2022-08-04T06:44:52.458Z,1.30
2022-08-04T06:47:21.907Z,0.80
2022-08-04T06:51:31.258Z,1.20
2022-08-04T06:52:41.943Z,1.30
2022-08-04T06:55:10.840Z,1.27
2022-08-04T06:57:39.913Z,0.93
2022-08-04T07:00:12.113Z,1.10
2022-08-04T07:02:46.996Z,1.60
2022-08-04T07:05:16.815Z,1.27
2022-08-04T07:07:57.419Z,1.30
2022-08-04T07:10:27.627Z,1.30
2022-08-04T07:12:57.321Z,1.20
2022-08-04T07:15:26.389Z,1.30
2022-08-04T07:18:00.103Z,1.30
2022-08-04T07:20:35.678Z,1.27
2022-08-04T07:23:05.455Z,1.13
2022-08-04T07:25:59.422Z,1.08
2022-08-04T07:28:26.391Z,1.27
2022-08-04T07:30:55.679Z,1.35
2022-08-04T07:33:25.754Z,1.10
2022-08-04T07:36:05.091Z,1.38
2022-08-04T07:38:48.309Z,1.27
2022-08-04T07:41:39.339Z,1.30
2022-08-04T07:44:09.034Z,1.30
2022-08-04T07:46:37.883Z,1.50
2022-08-04T07:49:06.570Z,1.00
2022-08-04T07:51:38.057Z,1.40
2022-08-04T07:54:07.839Z,1.17
2022-08-04T07:56:39.408Z,1.08
2022-08-04T07:59:08.373Z,1.42
2022-08-04T08:01:37.444Z,1.40
2022-08-04T08:04:08.157Z,1.50
2022-08-04T08:06:43.119Z,1.25
2022-08-04T08:09:14.736Z,1.20
2022-08-04T08:12:36.981Z,1.60
2022-08-04T08:14:33.474Z,1.50
2022-08-04T08:17:02.884Z,1.80
2022-08-04T08:19:31.595Z,1.60
2022-08-04T08:22:02.245Z,1.40
2022-08-04T08:24:31.692Z,1.35
2022-08-04T08:27:00.966Z,1.52
2022-08-04T08:29:30.683Z,1.10
2022-08-04T08:32:05.392Z,1.27
2022-08-04T08:34:36.363Z,0.93
2022-08-04T08:37:11.021Z,1.05
2022-08-04T08:39:42.589Z,1.30
2022-08-04T08:42:27.722Z,1.05
2022-08-04T08:45:33.217Z,1.38
2022-08-04T08:48:23.221Z,1.10
2022-08-04T08:51:11.784Z,1.27
2022-08-04T08:54:00.328Z,1.48
2022-08-04T08:56:35.166Z,1.08
2022-08-04T08:59:26.087Z,1.17
2022-08-04T09:02:09.268Z,1.02
2022-08-04T09:04:56.850Z,1.00
2022-08-04T09:07:45.901Z,1.10
2022-08-04T09:10:18.817Z,1.30
2022-08-04T09:12:52.796Z,1.17
2022-08-04T09:15:29.673Z,0.95
2022-08-04T09:18:03.509Z,1.00
2022-08-04T09:20:39.306Z,1.63
2022-08-04T09:23:20.153Z,1.20
2022-08-04T09:25:58.981Z,0.93
2022-08-04T09:28:52.239Z,1.05
2022-08-04T09:31:20.885Z,0.93
2022-08-04T09:33:55.545Z,1.23
2022-08-04T09:36:30.581Z,1.10
2022-08-04T09:39:06.381Z,1.20
2022-08-04T09:41:49.161Z,1.17
2022-08-04T09:44:49.271Z,1.20
2022-08-04T09:47:20.592Z,0.90
2022-08-04T09:49:51.846Z,1.10
2022-08-04T09:52:28.748Z,0.88
2022-08-04T09:55:06.059Z,1.20
2022-08-04T09:57:47.196Z,1.38
2022-08-04T10:00:17.026Z,0.90
2022-08-04T10:02:48.699Z,1.00
2022-08-04T10:05:21.894Z,1.35
2022-08-04T10:08:16.653Z,0.85
2022-08-04T10:10:53.293Z,1.30
2022-08-04T10:13:32.512Z,1.05
2022-08-04T10:16:13.291Z,1.20
2022-08-04T10:18:50.819Z,1.15
2022-08-04T10:21:24.134Z,0.95
2022-08-04T10:24:13.488Z,1.05
2022-08-04T10:26:48.727Z,0.88
2022-08-04T10:29:20.858Z,1.02
2022-08-04T10:31:56.741Z,0.90
2022-08-04T10:34:29.257Z,1.42
2022-08-04T10:37:06.019Z,1.20
2022-08-04T10:39:43.307Z,1.00
2022-08-04T10:42:20.920Z,1.30
2022-08-04T10:44:57.784Z,1.05
2022-08-04T10:47:31.812Z,1.15
2022-08-04T10:50:02.663Z,1.02
2022-08-04T10:52:35.686Z,1.02
2022-08-04T10:55:08.596Z,0.95
2022-08-04T10:57:40.611Z,1.30
2022-08-04T11:00:14.800Z,1.60
2022-08-04T11:02:47.962Z,1.20
2022-08-04T11:05:26.298Z,1.02
2022-08-04T11:08:01.177Z,1.27
2022-08-04T11:10:32.453Z,1.05
2022-08-04T11:13:06.044Z,0.90
2022-08-04T11:15:48.052Z,1.30
2022-08-04T11:18:25.662Z,1.40
2022-08-04T11:20:57.918Z,1.40
2022-08-04T11:23:29.919Z,1.15
2022-08-04T11:26:00.631Z,1.30
2022-08-04T11:28:39.477Z,1.20
2022-08-04T11:31:15.498Z,1.02
2022-08-04T11:33:48.893Z,1.05
2022-08-04T11:36:23.636Z,0.88
2022-08-04T11:38:58.022Z,1.40
2022-08-04T11:41:39.187Z,1.05
2022-08-04T11:44:12.581Z,1.20
2022-08-04T11:46:47.473Z,1.10
2022-08-04T11:49:23.041Z,1.13
2022-08-04T11:51:52.615Z,1.30
2022-08-04T11:54:22.119Z,1.20
2022-08-04T11:56:50.698Z,1.02
2022-08-04T11:59:19.556Z,1.13
2022-08-04T12:02:03.827Z,1.42
2022-08-04T12:04:39.134Z,1.20
2022-08-04T12:07:35.404Z,1.33
2022-08-04T12:10:42.288Z,1.20
2022-08-04T12:13:19.643Z,1.25
2022-08-04T12:15:54.305Z,1.35
2022-08-04T12:18:26.196Z,1.40
2022-08-04T12:20:59.918Z,1.20
2022-08-04T12:23:32.133Z,1.13
2022-08-04T12:26:06.680Z,1.20
2022-08-04T12:29:08.095Z,1.50
2022-08-04T12:31:29.045Z,1.38
2022-08-04T12:34:06.343Z,1.20
2022-08-04T12:36:43.416Z,1.35
2022-08-04T12:39:14.167Z,1.35
2022-08-04T12:41:47.863Z,1.20
2022-08-04T12:44:36.364Z,0.98
2022-08-04T12:47:26.718Z,0.90
2022-08-04T12:50:02.123Z,1.13
2022-08-04T12:53:01.638Z,0.95
2022-08-04T12:55:27.156Z,1.10
2022-08-04T12:57:56.423Z,1.00
2022-08-04T13:00:30.485Z,0.77
2022-08-04T13:03:09.679Z,1.10
2022-08-04T13:05:41.941Z,0.88
2022-08-04T13:08:11.793Z,1.13
2022-08-04T13:10:42.406Z,0.93
2022-08-04T13:13:16.813Z,1.00
2022-08-04T13:15:47.411Z,0.98
2022-08-04T13:18:29.542Z,1.00
2022-08-04T13:21:20.839Z,1.20
2022-08-04T13:26:55.412Z,1.10
2022-08-04T13:29:59.973Z,1.00
2022-08-04T13:30:25.147Z,0.93
2022-08-04T13:32:18.567Z,0.80
2022-08-04T13:34:52.696Z,1.27
2022-08-04T13:37:27.560Z,0.93
2022-08-04T13:39:57.426Z,1.38
2022-08-04T13:42:26.899Z,1.00
2022-08-04T13:44:57.729Z,0.93
2022-08-04T13:47:29.889Z,1.05
2022-08-04T13:50:16.822Z,0.90
2022-08-04T13:52:47.106Z,1.10
2022-08-04T13:55:24.709Z,1.15
2022-08-04T13:57:57.888Z,1.05
2022-08-04T14:00:33.381Z,1.02
2022-08-04T14:03:21.757Z,1.10
2022-08-04T14:06:24.985Z,0.90
2022-08-04T14:08:57.665Z,1.13
2022-08-04T14:12:10.616Z,1.08
2022-08-04T14:14:25.635Z,1.10
2022-08-04T14:16:59.278Z,0.90
2022-08-04T14:19:35.840Z,1.10
2022-08-04T14:22:04.917Z,1.00
2022-08-04T14:24:34.622Z,1.00
2022-08-04T14:27:03.338Z,0.80
2022-08-04T14:29:39.177Z,0.90
2022-08-04T14:32:14.210Z,0.85
2022-08-04T14:34:45.901Z,1.20
2022-08-04T14:37:19.361Z,0.90
2022-08-04T14:40:07.989Z,0.98
2022-08-04T14:42:55.264Z,1.00
2022-08-04T14:45:32.786Z,1.20
2022-08-04T14:48:02.187Z,1.20
2022-08-04T14:50:38.927Z,1.27
2022-08-04T14:53:09.484Z,1.35
2022-08-04T14:55:40.006Z,1.42
2022-08-04T14:58:36.947Z,1.50
2022-08-04T15:00:59.051Z,1.42
2022-08-04T15:03:28.182Z,1.27
2022-08-04T15:06:05.339Z,1.63
2022-08-04T15:08:35.900Z,1.50
2022-08-04T15:11:05.892Z,1.55
2022-08-04T15:13:34.879Z,1.27
2022-08-04T15:16:07.300Z,1.38
2022-08-04T15:18:38.862Z,1.58
2022-08-04T15:21:08.323Z,1.80
2022-08-04T15:23:39.447Z,2.30
2022-08-04T15:26:13.430Z,2.03
2022-08-04T15:28:50.385Z,2.50
2022-08-04T15:32:05.470Z,2.28
2022-08-04T15:34:09.540Z,2.35
2022-08-04T15:36:42.364Z,2.50
2022-08-04T15:39:20.714Z,2.10
2022-08-04T15:41:57.726Z,2.25
2022-08-04T15:45:04.360Z,1.90
2022-08-04T15:47:32.958Z,2.45
2022-08-04T15:50:06.530Z,1.98
2022-08-04T15:53:10.370Z,2.35
2022-08-04T15:55:42.114Z,3.13
2022-08-04T15:58:14.128Z,2.53
2022-08-04T16:01:17.900Z,2.28
2022-08-04T16:03:59.052Z,2.17
2022-08-04T16:06:45.840Z,2.38
2022-08-04T16:09:46.165Z,2.20
2022-08-04T16:12:54.411Z,2.35
2022-08-04T16:15:46.815Z,2.78
2022-08-04T16:18:36.042Z,2.78
2022-08-04T16:21:06.637Z,2.70
2022-08-04T16:24:06.852Z,2.58
2022-08-04T16:26:54.694Z,2.90
2022-08-04T16:29:43.766Z,2.25
2022-08-04T16:32:19.538Z,2.42
2022-08-04T16:34:56.988Z,2.58
2022-08-04T16:37:30.609Z,3.20
2022-08-04T16:40:35.692Z,3.08
2022-08-04T16:43:08.429Z,3.00
2022-08-04T16:45:58.827Z,2.88
2022-08-04T16:48:29.554Z,3.08
2022-08-04T16:51:03.215Z,2.50
2022-08-04T16:53:57.987Z,2.92
2022-08-04T16:56:33.396Z,2.58
2022-08-04T16:59:09.116Z,2.50
2022-08-04T17:01:37.859Z,3.13
2022-08-04T17:04:08.112Z,3.08
2022-08-04T17:06:38.586Z,2.92
2022-08-04T17:09:09.186Z,3.55
2022-08-04T17:11:37.770Z,3.75
2022-08-04T17:14:06.915Z,3.45
2022-08-04T17:16:37.967Z,3.90
2022-08-04T17:19:25.051Z,3.40
2022-08-04T17:22:02.307Z,3.47
2022-08-04T17:24:32.464Z,3.63
2022-08-04T17:27:01.072Z,3.28
2022-08-04T17:32:20.786Z,3.30
2022-08-04T17:34:52.173Z,2.67
2022-08-04T17:37:40.996Z,2.72
2022-08-04T17:40:13.168Z,2.78
2022-08-04T17:42:44.983Z,2.67
2022-08-04T17:45:51.301Z,2.20
2022-08-04T17:48:24.841Z,2.50
2022-08-04T17:50:55.065Z,2.53
2022-08-04T17:54:01.513Z,2.45
2022-08-04T17:56:31.539Z,2.47
2022-08-04T17:59:52.344Z,2.13
2022-08-04T18:02:09.474Z,1.80
2022-08-04T18:04:41.120Z,2.03
2022-08-04T18:08:45.775Z,2.28
2022-08-04T18:10:55.773Z,2.40
2022-08-04T18:13:26.307Z,2.53
2022-08-04T18:16:03.367Z,2.42
2022-08-04T18:18:32.313Z,2.20
2022-08-04T18:21:03.471Z,2.10
2022-08-04T18:23:34.647Z,2.50
2022-08-04T18:26:12.045Z,2.30
2022-08-04T18:28:43.034Z,1.85
2022-08-04T18:31:11.531Z,1.92
2022-08-04T18:33:57.259Z,1.98
2022-08-04T18:36:35.869Z,2.00
2022-08-04T18:39:13.082Z,2.15
2022-08-04T18:42:01.082Z,2.22
2022-08-04T18:44:31.495Z,1.98
2022-08-04T18:47:22.440Z,2.42
2022-08-04T18:51:01.239Z,2.28
2022-08-04T18:52:45.286Z,1.65
2022-08-04T18:55:56.208Z,2.00
2022-08-04T18:58:06.307Z,2.33
2022-08-04T19:00:37.238Z,2.28
2022-08-04T19:03:16.590Z,2.55
2022-08-04T19:06:02.772Z,2.03
2022-08-04T19:08:33.381Z,2.58
2022-08-04T19:11:36.833Z,1.90
2022-08-04T19:16:45.991Z,3.03
2022-08-04T19:19:18.212Z,1.85
2022-08-04T19:22:00.953Z,1.60
2022-08-04T19:24:34.415Z,2.03
2022-08-04T19:27:08.222Z,1.83
2022-08-04T19:29:41.399Z,1.52
2022-08-04T19:32:13.917Z,2.20
2022-08-04T19:34:46.442Z,1.75
2022-08-04T19:37:57.206Z,1.95
2022-08-04T19:40:06.389Z,2.13
2022-08-04T19:42:36.234Z,2.28
2022-08-04T19:45:05.508Z,2.13
2022-08-04T19:48:11.186Z,2.00
2022-08-04T19:50:23.867Z,2.20
2022-08-04T19:52:53.017Z,2.22
2022-08-04T19:55:36.743Z,2.10
2022-08-04T19:58:09.031Z,1.73
2022-08-04T20:00:38.632Z,2.00
2022-08-04T20:03:11.378Z,2.25
2022-08-04T20:05:53.418Z,2.38
2022-08-04T20:08:24.926Z,2.13
2022-08-04T20:10:54.664Z,2.40
2022-08-04T20:13:36.905Z,2.10
2022-08-04T20:16:28.776Z,2.10
2022-08-04T20:18:59.551Z,2.42
2022-08-04T20:21:55.602Z,1.80
2022-08-04T20:24:38.876Z,2.00
2022-08-04T20:27:15.076Z,1.73
2022-08-04T20:29:55.539Z,2.03
2022-08-04T20:32:25.610Z,2.00
2022-08-04T20:34:55.458Z,2.30
2022-08-04T20:37:25.972Z,2.10
2022-08-04T20:40:14.633Z,2.05
2022-08-04T20:42:46.162Z,2.10
2022-08-04T20:45:16.238Z,1.92
2022-08-04T20:47:54.216Z,2.83
2022-08-04T20:50:30.317Z,2.00
2022-08-04T20:52:59.370Z,1.90
2022-08-04T20:55:29.632Z,2.05
2022-08-04T20:58:03.039Z,2.50
2022-08-04T21:00:35.184Z,2.30
2022-08-04T21:03:07.438Z,1.88
2022-08-04T21:05:36.789Z,1.88
2022-08-04T21:08:10.266Z,2.20
2022-08-04T21:10:40.176Z,2.60
2022-08-04T21:13:17.892Z,2.40
2022-08-04T21:15:57.757Z,2.35
2022-08-04T21:18:29.423Z,2.33
2022-08-04T21:20:59.501Z,2.85
2022-08-04T21:23:33.885Z,2.72
2022-08-04T21:26:03.543Z,3.10
2022-08-04T21:28:32.614Z,2.92
2022-08-04T21:31:11.112Z,3.28
2022-08-04T21:33:52.822Z,2.90
2022-08-04T21:36:21.244Z,3.65
2022-08-04T21:38:51.146Z,4.05
2022-08-04T21:41:26.885Z,3.88
2022-08-04T21:43:58.847Z,4.22
2022-08-04T21:46:29.988Z,3.72
2022-08-04T21:48:59.435Z,4.57
2022-08-04T21:51:59.871Z,4.88
2022-08-04T21:54:18.895Z,4.40
2022-08-04T21:56:50.675Z,5.38
2022-08-04T21:59:31.468Z,5.10
2022-08-04T22:02:02.906Z,5.10
2022-08-04T22:04:31.546Z,4.75
2022-08-04T22:07:02.661Z,5.28
2022-08-04T22:09:38.503Z,4.82
2022-08-04T22:12:11.851Z,5.53
2022-08-04T22:14:50.369Z,5.40
2022-08-04T22:17:20.529Z,6.32
2022-08-04T22:19:55.585Z,5.68
2022-08-04T22:22:29.410Z,6.22
2022-08-04T22:25:01.735Z,5.50
2022-08-04T22:27:55.104Z,5.78
2022-08-04T22:30:36.877Z,5.95
2022-08-04T22:33:08.977Z,6.13
2022-08-04T22:35:44.261Z,5.30
2022-08-04T22:38:24.458Z,5.57
2022-08-04T22:41:08.247Z,5.40
2022-08-04T22:43:37.715Z,6.05
2022-08-04T22:46:09.278Z,6.22
2022-08-04T22:48:43.112Z,6.45
2022-08-04T22:51:12.729Z,6.43
2022-08-04T22:53:41.827Z,6.45
2022-08-04T22:56:38.178Z,6.75
2022-08-04T22:59:06.468Z,5.97
2022-08-04T23:01:58.917Z,6.00
2022-08-04T23:04:29.451Z,7.07
2022-08-04T23:06:58.396Z,7.43
2022-08-04T23:09:51.082Z,6.70
2022-08-04T23:12:25.364Z,6.38
2022-08-04T23:14:55.317Z,6.82
2022-08-04T23:17:24.364Z,7.10
2022-08-04T23:19:58.208Z,7.53
2022-08-04T23:22:41.993Z,6.80
2022-08-04T23:25:15.874Z,6.43
2022-08-04T23:27:50.375Z,7.00
2022-08-04T23:30:21.965Z,6.65
2022-08-04T23:32:53.856Z,7.05
2022-08-04T23:35:24.213Z,6.13
2022-08-04T23:37:56.735Z,6.65
2022-08-04T23:40:33.096Z,6.93
2022-08-04T23:43:17.425Z,6.20
2022-08-04T23:46:07.700Z,6.28
2022-08-04T23:48:35.502Z,7.00
2022-08-04T23:51:14.116Z,5.93
2022-08-04T23:54:03.514Z,6.45
2022-08-04T23:56:34.075Z,7.70
2022-08-04T23:59:03.764Z,6.82
